Gallina — 9VGC4 — position and weather

sailwx.info

Track history (hours):
 
Tides and Currents Weather Stations Pressure Air Temp Water Temp Dewpoint Dewpoint Depression Visibility Wind Speed Wind Dir Waves Ship Positions

Gallina

Last reported at 2017-Mar-30 15:12 UTC. Time now 2017-May-24 17:44 UTC.
Position N 29°02' W 093°35'.
Warning: this ship's position is 55 days out of date.

Type: Ship (hazmat cat A). MMSI: 564646000.

Date/timePositionNaut miles runAvg speedWind from/ knotsBaromVisibWave heightAir tempDewpointWater temp
2017-Mar-30 15:12N 29°02' W 093°35'45 9.6
2017-Mar-30 10:33N 29°44' W 093°52'  
2017-Mar-27 15:22N 29°12' W 093°40'1112.8
2017-Mar-27 14:30N 29°02' W 093°34'1213.3
2017-Mar-27 13:33N 28°52' W 093°26'  
2017-Mar-24 16:25N 25°23' W 079°41'1011.3
2017-Mar-24 15:33N 25°33' W 079°41'1111.5
2017-Mar-24 14:34N 25°44' W 079°41'1111.4
2017-Mar-24 13:33N 25°56' W 079°41'1111.4
2017-Mar-24 12:33N 26°07' W 079°40'1111.1
2017-Mar-24 11:33N 26°18' W 079°39'1210.7
2017-Mar-24 10:28N 26°30' W 079°38'  
Track history (hours):
 
Tides and Currents Weather Stations Pressure Air Temp Water Temp Dewpoint Dewpoint Depression Visibility Wind Speed Wind Dir Waves Ship Positions

Gallina

Last reported at 2017-Mar-30 15:12 UTC. Time now 2017-May-24 17:44 UTC.
Position N 29°02' W 093°35'.
Warning: this ship's position is 55 days out of date.

Type: Ship (hazmat cat A). MMSI: 564646000.

Date/timePositionNaut miles runAvg speedWind from/ knotsBaromVisibWave heightAir tempDewpointWater temp
2017-Mar-30 15:12N 29°02' W 093°35'45 9.6
2017-Mar-30 10:33N 29°44' W 093°52'  
2017-Mar-27 15:22N 29°12' W 093°40'1112.8
2017-Mar-27 14:30N 29°02' W 093°34'1213.3
2017-Mar-27 13:33N 28°52' W 093°26'  
2017-Mar-24 16:25N 25°23' W 079°41'1011.3
2017-Mar-24 15:33N 25°33' W 079°41'1111.5
2017-Mar-24 14:34N 25°44' W 079°41'1111.4
2017-Mar-24 13:33N 25°56' W 079°41'1111.4
2017-Mar-24 12:33N 26°07' W 079°40'1111.1
2017-Mar-24 11:33N 26°18' W 079°39'1210.7
2017-Mar-24 10:28N 26°30' W 079°38'  

Dump ship's entire track history